Austin, Arkansas
Current Conditions -  °F | °C
As of 5:58 PM on Saturday 22 Nov 2014 (Local Time) from KLRF Reporting Station
Scattered Clouds Scattered Clouds  
Wind Chill: 55°   Ceiling: Unl
Heat Index: 55°   Visibility: 10mi
Dew Point: 51°   Wind: 2mph
Humidity: 88%   Direction: 60°ENE
Pressure: 30"   Gusts: NA
Location:  35°N, 91.98°W
Report Text: KLRF 222358Z AUTO 06002KT 10SM SCT042 13/11 A3000 RMK AO2 SLP162 T01250105 10191 20125 55004
Loading
Personal Weather Stations






























Interactive Weather Map New forecast layout! Learn more

10-Day Weather Forecast

Advertisements
Track Severe Weather on mobile